Time;durP1;ratioP1;P1;durP2;ratioP2;P2;SDS_P1;SDS_P2;PMS_P1;PMS_P2;Temp;Humidity;BMP_temperature;BMP_pressure;BME280_temperature;BME280_humidity;BME280_pressure;Samples;Min_cycle;Max_cycle;Signal;HPM_P1;HPM_P2
2023/06/19 05:00:33;;;;;;;5.20;4.77;;;22.20;97.20;;;;;;1728114;28;20208;-70
2023/06/19 05:01:27;;;;;;;5.07;4.68;;;22.20;97.20;;;;;;1728141;28;20589;-69
2023/06/19 05:02:19;;;;;;;5.43;5.03;;;22.20;97.20;;;;;;1727927;28;20642;-69
2023/06/19 05:03:13;;;;;;;7.70;5.07;;;22.20;97.20;;;;;;1728126;28;20204;-69
2023/06/19 05:04:05;;;;;;;4.95;4.55;;;22.20;97.20;;;;;;1728076;28;20201;-69
2023/06/19 05:04:56;;;;;;;5.72;5.22;;;22.20;97.20;;;;;;1727532;28;20224;-70
2023/06/19 05:05:47;;;;;;;4.83;4.50;;;22.20;97.20;;;;;;1727747;28;20203;-70
2023/06/19 05:06:38;;;;;;;10.70;5.13;;;22.20;97.20;;;;;;1728164;28;20196;-69
2023/06/19 05:07:30;;;;;;;5.20;4.70;;;22.20;97.20;;;;;;1728077;28;20486;-70
2023/06/19 05:09:19;;;;;;;4.73;4.33;;;22.20;97.20;;;;;;1727161;28;20242;-69
2023/06/19 05:10:10;;;;;;;5.20;4.80;;;22.30;97.20;;;;;;1721268;28;20445;-70
2023/06/19 05:11:02;;;;;;;5.10;4.70;;;22.30;97.20;;;;;;1724629;28;20192;-70
2023/06/19 05:11:53;;;;;;;5.30;4.80;;;22.30;97.20;;;;;;1727399;28;20564;-70
2023/06/19 05:12:45;;;;;;;5.80;5.30;;;22.20;97.20;;;;;;1728119;28;20280;-69
2023/06/19 05:13:35;;;;;;;4.75;4.45;;;22.20;97.20;;;;;;1727968;28;20689;-69
2023/06/19 05:14:27;;;;;;;5.73;5.30;;;22.20;97.20;;;;;;1728458;28;20662;-69
2023/06/19 05:15:18;;;;;;;5.22;4.82;;;22.20;97.20;;;;;;1728094;28;20196;-70
2023/06/19 05:16:15;;;;;;;6.20;5.27;;;22.20;97.20;;;;;;1727856;28;20211;-69
2023/06/19 05:17:06;;;;;;;5.50;5.10;;;22.20;97.20;;;;;;1727898;28;20448;-69
2023/06/19 05:17:58;;;;;;;5.73;5.27;;;22.20;97.20;;;;;;1727581;28;20234;-69
2023/06/19 05:18:49;;;;;;;5.00;4.50;;;22.20;97.20;;;;;;1727178;28;20254;-70
2023/06/19 05:19:40;;;;;;;5.03;4.60;;;22.20;97.20;;;;;;1728158;28;20263;-69
2023/06/19 05:20:31;;;;;;;5.10;4.70;;;22.20;97.20;;;;;;1727483;28;20710;-70
2023/06/19 05:21:23;;;;;;;5.03;4.63;;;22.30;97.20;;;;;;1727804;28;20785;-69
2023/06/19 05:22:14;;;;;;;7.05;4.45;;;22.30;97.20;;;;;;1728008;28;20204;-69
2023/06/19 05:23:06;;;;;;;4.87;4.47;;;22.30;97.20;;;;;;1727955;28;20204;-69
2023/06/19 05:23:56;;;;;;;4.70;4.35;;;22.30;97.20;;;;;;1727836;28;20451;-70
2023/06/19 05:24:48;;;;;;;5.03;4.63;;;22.30;97.20;;;;;;1727964;28;20200;-70
2023/06/19 05:25:39;;;;;;;4.63;4.22;;;22.30;97.20;;;;;;1728062;28;20219;-70
2023/06/19 05:26:30;;;;;;;5.90;4.63;;;22.40;97.20;;;;;;1727962;28;20288;-69
2023/06/19 05:27:21;;;;;;;5.90;4.87;;;22.40;97.20;;;;;;1727882;28;20209;-70
2023/06/19 05:28:13;;;;;;;5.60;4.43;;;22.40;97.20;;;;;;1727684;28;20443;-70
2023/06/19 05:29:04;;;;;;;5.47;4.35;;;22.40;97.20;;;;;;1727758;28;20729;-70
2023/06/19 05:29:55;;;;;;;5.00;4.60;;;22.40;97.20;;;;;;1727834;28;20204;-69
2023/06/19 05:30:46;;;;;;;4.65;4.25;;;22.40;97.20;;;;;;1727797;28;20235;-69
2023/06/19 05:31:39;;;;;;;4.60;4.17;;;22.40;97.20;;;;;;1727899;28;20662;-69
2023/06/19 05:32:30;;;;;;;4.65;4.35;;;22.40;97.20;;;;;;1727923;28;20200;-69
2023/06/19 05:33:23;;;;;;;4.70;4.25;;;22.40;97.20;;;;;;1727732;28;20204;-69
2023/06/19 05:34:14;;;;;;;4.78;4.40;;;22.40;97.20;;;;;;1726824;28;20209;-69
2023/06/19 05:35:06;;;;;;;4.80;4.40;;;22.40;97.20;;;;;;1727789;28;20228;-68
2023/06/19 05:35:57;;;;;;;4.60;4.20;;;22.40;97.20;;;;;;1727901;28;20209;-69
2023/06/19 05:36:49;;;;;;;4.50;3.90;;;22.40;97.20;;;;;;1728041;28;20231;-69
2023/06/19 05:37:42;;;;;;;4.90;3.83;;;22.40;97.20;;;;;;1727678;28;20204;-69
2023/06/19 05:38:34;;;;;;;3.70;3.40;;;22.50;97.20;;;;;;1727311;28;20204;-69
2023/06/19 05:39:25;;;;;;;5.07;3.92;;;22.50;97.20;;;;;;1727903;28;20940;-69
2023/06/19 05:40:17;;;;;;;3.97;3.67;;;22.50;97.20;;;;;;1727886;28;20658;-69
2023/06/19 05:41:08;;;;;;;5.25;4.28;;;22.50;97.20;;;;;;1727740;28;20192;-69
2023/06/19 05:41:59;;;;;;;4.80;4.30;;;22.50;97.20;;;;;;1728018;28;20230;-69
2023/06/19 05:42:50;;;;;;;4.05;3.75;;;22.60;97.20;;;;;;1728002;28;20238;-69
2023/06/19 05:43:42;;;;;;;5.43;4.00;;;22.60;97.20;;;;;;1727635;28;20193;-69
2023/06/19 05:44:33;;;;;;;4.47;4.18;;;22.60;97.20;;;;;;1727876;28;20209;-69
2023/06/19 05:45:24;;;;;;;4.57;4.17;;;22.60;97.20;;;;;;1727884;28;20232;-69
2023/06/19 05:46:15;;;;;;;4.97;3.80;;;22.60;97.20;;;;;;1727748;28;20205;-69
2023/06/19 05:47:08;;;;;;;4.37;4.00;;;22.70;97.20;;;;;;1727687;28;20484;-69
2023/06/19 05:47:59;;;;;;;4.60;4.20;;;22.70;97.20;;;;;;1727820;28;20196;-68
2023/06/19 05:48:51;;;;;;;4.13;3.73;;;22.70;97.20;;;;;;1727995;28;20667;-70
2023/06/19 05:49:41;;;;;;;5.00;3.90;;;22.80;97.20;;;;;;1727880;28;20219;-69
2023/06/19 05:50:33;;;;;;;4.53;4.00;;;22.80;97.20;;;;;;1727802;28;20497;-69
2023/06/19 05:51:24;;;;;;;4.40;4.10;;;22.80;97.20;;;;;;1728098;28;20591;-69
2023/06/19 05:52:15;;;;;;;3.60;3.30;;;22.90;97.20;;;;;;1727643;28;20510;-70
2023/06/19 05:53:06;;;;;;;3.90;3.60;;;22.90;97.20;;;;;;1727695;28;20885;-69
2023/06/19 05:54:03;;;;;;;4.60;4.20;;;22.90;97.20;;;;;;1728072;28;20898;-68
2023/06/19 05:54:54;;;;;;;4.10;3.80;;;22.90;97.20;;;;;;1734434;28;20211;-69
2023/06/19 05:55:46;;;;;;;3.93;3.63;;;23.00;97.20;;;;;;1734856;28;20287;-69
2023/06/19 05:56:36;;;;;;;4.10;3.80;;;23.00;97.20;;;;;;1729467;28;21895;-69
2023/06/19 05:57:28;;;;;;;4.17;3.87;;;23.00;97.20;;;;;;1723410;28;20572;-70
2023/06/19 05:58:21;;;;;;;6.25;3.90;;;23.00;97.20;;;;;;1722227;28;20913;-69
2023/06/19 05:59:14;;;;;;;4.35;4.05;;;23.00;97.20;;;;;;1727480;28;20674;-69
2023/06/19 06:00:10;;;;;;;4.00;3.70;;;23.10;97.20;;;;;;1727861;28;20208;-69
2023/06/19 06:01:02;;;;;;;5.13;3.67;;;23.10;97.20;;;;;;1727301;28;20455;-69
2023/06/19 06:01:55;;;;;;;3.72;3.42;;;23.10;97.20;;;;;;1727352;28;20930;-69
2023/06/19 06:02:48;;;;;;;4.87;4.47;;;23.10;97.20;;;;;;1727699;28;20283;-69
2023/06/19 06:03:39;;;;;;;4.53;3.90;;;23.20;97.20;;;;;;1727473;28;20452;-69
2023/06/19 06:04:31;;;;;;;4.23;3.93;;;23.20;97.20;;;;;;1727264;28;20192;-69
2023/06/19 06:05:22;;;;;;;3.60;3.30;;;23.20;97.20;;;;;;1727684;28;20246;-71
2023/06/19 06:06:14;;;;;;;4.07;3.70;;;23.20;97.20;;;;;;1727866;28;20451;-69
2023/06/19 06:07:05;;;;;;;4.10;3.80;;;23.20;97.20;;;;;;1731478;28;20473;-69
2023/06/19 06:07:57;;;;;;;4.57;3.60;;;23.30;97.20;;;;;;1727495;28;20505;-69
2023/06/19 06:08:48;;;;;;;4.57;3.60;;;23.30;97.20;;;;;;1727509;28;20498;-69
2023/06/19 06:09:39;;;;;;;4.63;4.13;;;23.30;97.20;;;;;;1727885;28;20470;-69
2023/06/19 06:10:30;;;;;;;3.73;3.53;;;23.30;97.20;;;;;;1734344;28;20214;-69
2023/06/19 06:11:23;;;;;;;4.27;3.87;;;23.40;97.20;;;;;;1734516;28;20450;-69
2023/06/19 06:12:14;;;;;;;4.00;3.70;;;23.40;97.20;;;;;;1734616;28;20208;-69
2023/06/19 06:13:05;;;;;;;4.13;3.83;;;23.40;97.20;;;;;;1734596;28;20453;-69
2023/06/19 06:13:56;;;;;;;4.70;4.05;;;23.40;97.20;;;;;;1732217;28;20257;-69
2023/06/19 06:14:48;;;;;;;4.17;3.87;;;23.50;97.20;;;;;;1727887;28;20204;-69
2023/06/19 06:15:39;;;;;;;4.22;3.92;;;23.50;97.20;;;;;;1727889;28;20554;-69
2023/06/19 06:16:30;;;;;;;4.50;4.10;;;23.50;97.20;;;;;;1727334;28;20566;-68
2023/06/19 06:17:21;;;;;;;3.90;3.60;;;23.60;97.20;;;;;;1727145;28;20467;-71
2023/06/19 06:18:14;;;;;;;4.17;3.87;;;23.60;97.20;;;;;;1727495;28;20450;-69
2023/06/19 06:19:05;;;;;;;3.93;3.63;;;23.70;97.20;;;;;;1727849;28;20197;-69
2023/06/19 06:19:57;;;;;;;4.45;4.07;;;23.70;97.20;;;;;;1727670;28;20447;-69
2023/06/19 06:20:48;;;;;;;4.65;3.75;;;23.70;97.20;;;;;;1727694;28;20243;-68
2023/06/19 06:21:40;;;;;;;3.70;3.40;;;23.80;97.20;;;;;;1727812;28;20218;-69
2023/06/19 06:22:31;;;;;;;4.60;4.20;;;23.80;97.20;;;;;;1727860;28;20284;-69
2023/06/19 06:23:23;;;;;;;4.20;3.90;;;23.90;97.20;;;;;;1727830;28;20212;-69
2023/06/19 06:24:13;;;;;;;4.40;3.90;;;23.90;97.20;;;;;;1727780;28;20433;-70
2023/06/19 06:25:06;;;;;;;3.90;3.67;;;23.90;97.20;;;;;;1727711;28;20200;-69
2023/06/19 06:26:01;;;;;;;3.77;3.47;;;24.00;97.20;;;;;;1728560;28;20200;-69
2023/06/19 06:26:53;;;;;;;4.90;3.97;;;24.00;97.20;;;;;;1734153;28;20471;-69
2023/06/19 06:27:44;;;;;;;3.60;3.30;;;24.10;97.20;;;;;;1728236;28;20479;-69
2023/06/19 06:28:36;;;;;;;4.72;3.50;;;24.10;97.20;;;;;;1727596;28;20453;-69
2023/06/19 06:29:28;;;;;;;4.67;4.17;;;24.10;97.20;;;;;;1728013;28;20204;-69
2023/06/19 06:30:19;;;;;;;5.22;3.53;;;24.10;97.20;;;;;;1727668;28;20447;-68
2023/06/19 06:31:11;;;;;;;3.58;3.25;;;24.20;97.20;;;;;;1728401;28;20212;-68
2023/06/19 06:32:07;;;;;;;4.50;4.07;;;24.20;97.20;;;;;;1728271;28;20204;-69
2023/06/19 06:32:58;;;;;;;3.80;3.50;;;24.20;97.20;;;;;;1728401;28;20460;-69
2023/06/19 06:33:51;;;;;;;3.80;3.50;;;24.30;97.20;;;;;;1728454;28;20535;-69
2023/06/19 06:34:42;;;;;;;3.70;3.40;;;24.30;97.20;;;;;;1728366;28;20205;-69
2023/06/19 06:35:35;;;;;;;6.30;3.60;;;24.30;97.20;;;;;;1728542;28;20443;-71
2023/06/19 06:36:26;;;;;;;5.07;3.50;;;24.30;97.20;;;;;;1728328;28;20931;-71
2023/06/19 06:37:22;;;;;;;3.80;3.50;;;24.30;97.20;;;;;;1727919;28;20447;-69
2023/06/19 06:38:13;;;;;;;4.10;3.80;;;24.30;97.20;;;;;;1727217;28;20204;-69
2023/06/19 06:39:05;;;;;;;3.35;3.15;;;24.30;97.20;;;;;;1727945;28;20522;-68
2023/06/19 06:39:56;;;;;;;4.60;3.50;;;24.30;97.20;;;;;;1728293;28;20603;-69
2023/06/19 06:40:48;;;;;;;3.73;3.43;;;24.30;97.20;;;;;;1728325;28;20513;-68
2023/06/19 06:41:39;;;;;;;3.80;3.30;;;24.30;97.20;;;;;;1728700;28;20693;-69
2023/06/19 06:42:31;;;;;;;4.20;3.53;;;24.30;97.20;;;;;;1728242;28;20988;-69
2023/06/19 06:43:22;;;;;;;3.73;3.43;;;24.40;97.20;;;;;;1728140;28;20662;-68
2023/06/19 06:44:14;;;;;;;3.77;3.47;;;24.40;97.20;;;;;;1727940;28;20814;-69
2023/06/19 06:45:06;;;;;;;3.40;3.20;;;24.40;97.20;;;;;;1728299;28;20940;-68
2023/06/19 06:45:58;;;;;;;3.63;3.33;;;24.40;97.20;;;;;;1728354;28;21055;-69
2023/06/19 06:46:49;;;;;;;3.60;3.30;;;24.40;97.20;;;;;;1728261;28;20462;-69
2023/06/19 06:47:41;;;;;;;3.23;3.03;;;24.40;97.20;;;;;;1728147;28;20192;-68
2023/06/19 06:48:31;;;;;;;4.30;4.00;;;24.40;97.20;;;;;;1727794;28;20266;-68
2023/06/19 06:49:24;;;;;;;3.40;3.20;;;24.40;97.20;;;;;;1728301;28;20479;-68
2023/06/19 06:50:15;;;;;;;4.03;3.50;;;24.40;97.20;;;;;;1728532;28;20219;-68
2023/06/19 06:51:09;;;;;;;3.30;3.00;;;24.40;97.20;;;;;;1728081;28;20453;-69
2023/06/19 06:52:00;;;;;;;3.50;3.30;;;24.40;97.20;;;;;;1727776;28;20205;-69
2023/06/19 06:52:52;;;;;;;3.50;3.03;;;24.40;97.20;;;;;;1727622;28;21018;-69
2023/06/19 06:53:44;;;;;;;3.80;3.50;;;24.40;97.20;;;;;;1727938;28;20505;-69
2023/06/19 06:54:36;;;;;;;3.70;3.40;;;24.40;97.20;;;;;;1728238;28;20447;-69
2023/06/19 06:55:27;;;;;;;3.60;3.30;;;24.40;97.20;;;;;;1734820;28;20442;-69
2023/06/19 06:56:18;;;;;;;4.00;3.60;;;24.40;97.20;;;;;;1734962;28;20457;-69
2023/06/19 06:57:09;;;;;;;5.40;3.33;;;24.40;97.20;;;;;;1733875;28;20210;-69
2023/06/19 06:58:01;;;;;;;3.30;3.00;;;24.50;97.20;;;;;;1727222;28;20436;-69
2023/06/19 06:58:52;;;;;;;3.90;3.60;;;24.50;97.20;;;;;;1730767;28;20212;-69
2023/06/19 06:59:44;;;;;;;4.97;3.43;;;24.50;97.20;;;;;;1734754;28;20439;-69
2023/06/19 07:00:35;;;;;;;4.30;4.00;;;24.50;97.20;;;;;;1734628;28;20228;-69
2023/06/19 07:01:26;;;;;;;4.07;3.10;;;24.60;97.20;;;;;;1734724;28;20454;-69
2023/06/19 07:02:18;;;;;;;3.90;3.60;;;24.60;97.20;;;;;;1734716;28;20453;-69
2023/06/19 07:03:09;;;;;;;3.60;3.30;;;24.60;97.20;;;;;;1727940;28;20702;-70
2023/06/19 07:04:00;;;;;;;5.27;3.37;;;24.60;97.20;;;;;;1727921;28;20960;-68
2023/06/19 07:04:52;;;;;;;4.00;3.57;;;24.60;97.20;;;;;;1727953;28;20207;-68
2023/06/19 07:05:46;;;;;;;4.03;3.67;;;24.70;97.20;;;;;;1728211;28;20605;-69
2023/06/19 07:06:36;;;;;;;3.63;3.33;;;24.70;97.20;;;;;;1727851;28;20462;-69
2023/06/19 07:07:28;;;;;;;3.23;2.93;;;24.70;97.20;;;;;;1727766;28;21005;-69
2023/06/19 07:08:19;;;;;;;4.83;3.67;;;24.80;97.20;;;;;;1727907;28;20378;-68
2023/06/19 07:09:11;;;;;;;3.40;2.97;;;24.80;97.20;;;;;;1728202;28;20454;-69
2023/06/19 07:10:01;;;;;;;3.70;3.40;;;24.90;97.20;;;;;;1728333;28;20227;-69
2023/06/19 07:10:54;;;;;;;3.27;3.07;;;24.90;97.20;;;;;;1730591;28;20240;-69
2023/06/19 07:11:45;;;;;;;3.40;3.10;;;24.90;97.20;;;;;;1729088;28;20211;-69
2023/06/19 07:12:45;;;;;;;3.70;3.40;;;25.00;97.20;;;;;;1727016;28;20199;-68
2023/06/19 07:13:36;;;;;;;3.77;3.33;;;25.00;97.20;;;;;;1727827;28;20666;-69
2023/06/19 07:14:28;;;;;;;4.10;3.00;;;25.00;97.20;;;;;;1728171;28;20526;-69
2023/06/19 07:15:19;;;;;;;3.30;3.00;;;25.10;97.20;;;;;;1727645;28;20204;-70
2023/06/19 07:16:11;;;;;;;3.20;3.00;;;25.10;97.20;;;;;;1728147;28;20530;-70
2023/06/19 07:17:02;;;;;;;3.33;3.13;;;25.10;97.20;;;;;;1727758;28;20925;-71
2023/06/19 07:17:53;;;;;;;3.50;3.20;;;25.10;97.20;;;;;;1726824;28;20797;-70
2023/06/19 07:18:44;;;;;;;3.43;3.17;;;25.10;97.20;;;;;;1727241;28;20228;-69
2023/06/19 07:19:37;;;;;;;5.47;3.57;;;25.10;97.20;;;;;;1727651;28;20832;-69
2023/06/19 07:20:29;;;;;;;3.90;3.13;;;25.10;97.20;;;;;;1727536;28;20587;-68
2023/06/19 07:21:21;;;;;;;4.93;3.57;;;25.10;97.20;;;;;;1727826;28;20454;-69
2023/06/19 07:22:12;;;;;;;4.03;3.40;;;25.10;97.20;;;;;;1727637;28;20443;-68
2023/06/19 07:23:04;;;;;;;3.40;3.10;;;25.20;97.20;;;;;;1728257;28;20515;-69
2023/06/19 07:23:55;;;;;;;3.87;3.57;;;25.20;97.20;;;;;;1727701;28;20447;-69
2023/06/19 07:24:48;;;;;;;3.20;3.00;;;25.20;97.20;;;;;;1727432;28;20455;-69
2023/06/19 07:25:38;;;;;;;3.37;3.07;;;25.30;97.20;;;;;;1727502;28;20454;-69
2023/06/19 07:26:30;;;;;;;3.23;3.03;;;25.30;97.20;;;;;;1727429;28;20466;-69
2023/06/19 07:27:21;;;;;;;3.20;3.00;;;25.30;97.20;;;;;;1727540;28;20207;-69
2023/06/19 07:28:13;;;;;;;3.53;3.23;;;25.40;97.20;;;;;;1727111;28;20522;-69
2023/06/19 07:29:04;;;;;;;3.07;2.87;;;25.40;97.20;;;;;;1727911;28;20444;-68
2023/06/19 07:29:56;;;;;;;3.33;3.03;;;25.50;97.20;;;;;;1727864;28;20922;-69
2023/06/19 07:30:47;;;;;;;3.20;2.97;;;25.50;97.20;;;;;;1727998;28;20228;-69
2023/06/19 07:31:42;;;;;;;3.50;3.20;;;25.50;97.20;;;;;;1727647;28;20454;-69
2023/06/19 07:32:33;;;;;;;5.80;3.13;;;25.50;97.20;;;;;;1727664;28;20460;-69
2023/06/19 07:33:24;;;;;;;4.50;3.43;;;25.50;97.20;;;;;;1727973;28;20523;-69
2023/06/19 07:34:15;;;;;;;3.30;3.00;;;25.50;97.20;;;;;;1727958;28;20208;-69
2023/06/19 07:35:09;;;;;;;3.60;3.30;;;25.50;97.20;;;;;;1727792;28;20992;-68
2023/06/19 07:36:02;;;;;;;3.70;3.40;;;25.50;97.20;;;;;;1728264;28;20208;-68
2023/06/19 07:36:54;;;;;;;3.60;3.30;;;25.60;97.20;;;;;;1727825;28;20516;-68
2023/06/19 07:37:45;;;;;;;3.20;3.00;;;25.60;97.20;;;;;;1727736;28;20201;-68
2023/06/19 07:38:37;;;;;;;3.00;2.80;;;25.60;97.20;;;;;;1727807;28;20452;-68
2023/06/19 07:39:28;;;;;;;3.20;2.90;;;25.70;97.20;;;;;;1727793;28;20459;-68
2023/06/19 07:40:20;;;;;;;3.47;3.28;;;25.70;97.20;;;;;;1727635;28;20475;-68
2023/06/19 07:41:11;;;;;;;3.10;2.90;;;25.80;97.20;;;;;;1727559;28;20208;-71
2023/06/19 07:42:02;;;;;;;3.50;3.20;;;25.80;97.20;;;;;;1727454;28;20989;-71
2023/06/19 07:42:54;;;;;;;3.03;2.83;;;25.90;97.20;;;;;;1727572;28;20804;-68
2023/06/19 07:43:45;;;;;;;3.20;3.00;;;25.90;97.20;;;;;;1727671;28;20220;-68
2023/06/19 07:44:36;;;;;;;3.73;3.43;;;26.00;97.20;;;;;;1727325;28;20184;-68
2023/06/19 07:45:27;;;;;;;3.57;3.27;;;26.00;97.20;;;;;;1727555;28;20211;-68
2023/06/19 07:46:20;;;;;;;3.50;3.20;;;26.10;97.20;;;;;;1727716;28;20477;-69
2023/06/19 07:47:11;;;;;;;3.20;3.00;;;26.10;97.20;;;;;;1727101;28;20452;-71
2023/06/19 07:48:03;;;;;;;3.40;3.10;;;26.20;97.20;;;;;;1726686;28;20447;-69
2023/06/19 07:48:54;;;;;;;3.63;3.33;;;26.20;97.20;;;;;;1727106;28;20443;-69
2023/06/19 07:49:45;;;;;;;3.43;3.23;;;26.30;97.20;;;;;;1727345;28;20492;-69
2023/06/19 07:50:36;;;;;;;3.45;3.15;;;26.30;97.20;;;;;;1727224;28;20220;-69
2023/06/19 07:51:29;;;;;;;5.10;3.43;;;26.30;97.20;;;;;;1727324;28;20218;-69
2023/06/19 07:52:20;;;;;;;4.75;3.67;;;26.30;97.20;;;;;;1727410;28;20200;-69
2023/06/19 07:53:12;;;;;;;4.23;3.70;;;26.20;97.20;;;;;;1727260;28;20200;-69
2023/06/19 07:54:03;;;;;;;3.97;3.67;;;26.20;97.20;;;;;;1727135;28;20653;-69
2023/06/19 07:54:56;;;;;;;4.20;3.70;;;26.10;97.20;;;;;;1727261;28;20447;-69
2023/06/19 07:55:46;;;;;;;3.53;3.23;;;26.10;97.20;;;;;;1727291;28;20439;-69
2023/06/19 07:56:39;;;;;;;5.20;4.00;;;26.10;97.20;;;;;;1727232;28;20526;-69
2023/06/19 07:57:29;;;;;;;3.70;3.30;;;26.00;97.20;;;;;;1727033;28;20205;-69
2023/06/19 07:58:22;;;;;;;6.90;3.73;;;26.00;97.20;;;;;;1726947;28;20462;-69
2023/06/19 07:59:13;;;;;;;6.93;4.10;;;25.90;97.20;;;;;;1727148;28;20259;-69
2023/06/19 08:00:10;;;;;;;5.00;3.77;;;25.90;97.20;;;;;;1727006;28;20442;-69
2023/06/19 08:01:01;;;;;;;4.00;3.70;;;25.80;97.20;;;;;;1727371;28;20820;-69
2023/06/19 08:01:53;;;;;;;3.77;3.47;;;25.80;97.20;;;;;;1730267;28;20466;-69
2023/06/19 08:02:44;;;;;;;4.07;3.77;;;25.80;97.20;;;;;;1734154;28;20215;-69
2023/06/19 08:03:36;;;;;;;4.30;3.90;;;25.80;97.20;;;;;;1734103;28;20438;-69
2023/06/19 08:04:26;;;;;;;4.63;3.90;;;25.70;97.20;;;;;;1734177;28;20208;-69
2023/06/19 08:05:18;;;;;;;6.90;4.00;;;25.70;97.20;;;;;;1734124;28;21000;-69
2023/06/19 08:06:09;;;;;;;4.70;4.30;;;25.70;97.20;;;;;;1729034;28;20358;-69
2023/06/19 08:07:02;;;;;;;4.07;3.77;;;25.70;97.20;;;;;;1727323;28;20497;-69
2023/06/19 08:07:53;;;;;;;4.10;3.70;;;25.70;97.20;;;;;;1727225;28;20288;-69
2023/06/19 08:08:45;;;;;;;5.20;4.10;;;25.70;97.20;;;;;;1727155;28;20515;-69
2023/06/19 08:09:36;;;;;;;6.30;4.30;;;25.70;97.20;;;;;;1727134;28;20204;-69
2023/06/19 08:10:27;;;;;;;4.80;4.40;;;25.70;97.20;;;;;;1727245;28;20550;-69
2023/06/19 08:11:18;;;;;;;4.97;4.03;;;25.70;97.20;;;;;;1727279;28;20228;-69
2023/06/19 08:12:10;;;;;;;3.77;3.47;;;25.70;97.20;;;;;;1727231;28;20448;-69
2023/06/19 08:13:01;;;;;;;4.30;3.90;;;25.70;97.20;;;;;;1727283;28;20201;-69
2023/06/19 08:13:52;;;;;;;4.73;4.30;;;25.70;97.20;;;;;;1727236;28;20447;-69
2023/06/19 08:14:43;;;;;;;4.10;3.80;;;25.70;97.20;;;;;;1727247;28;20208;-69
2023/06/19 08:15:35;;;;;;;4.17;3.50;;;25.70;97.20;;;;;;1727189;28;20531;-69
2023/06/19 08:16:26;;;;;;;4.40;4.00;;;25.70;97.20;;;;;;1727319;28;20212;-69
2023/06/19 08:17:18;;;;;;;4.00;3.70;;;25.70;97.20;;;;;;1727244;28;20459;-69
2023/06/19 08:18:08;;;;;;;4.43;3.83;;;25.80;97.20;;;;;;1730259;28;20446;-69
2023/06/19 08:19:00;;;;;;;4.90;4.50;;;25.80;97.20;;;;;;1734131;28;20940;-69
2023/06/19 08:19:51;;;;;;;6.20;4.23;;;25.80;97.20;;;;;;1733950;28;20210;-69
2023/06/19 08:20:42;;;;;;;4.50;4.10;;;25.80;97.20;;;;;;1733930;28;20450;-69
2023/06/19 08:21:33;;;;;;;4.50;4.17;;;25.80;97.20;;;;;;1734039;28;20204;-69
2023/06/19 08:22:26;;;;;;;7.70;5.00;;;25.80;97.20;;;;;;1733987;28;20445;-69
2023/06/19 08:23:17;;;;;;;4.30;3.77;;;25.90;97.20;;;;;;1734060;28;20204;-69
2023/06/19 08:24:09;;;;;;;5.73;4.80;;;25.90;97.20;;;;;;1734045;28;20438;-68
2023/06/19 08:24:59;;;;;;;5.13;4.73;;;25.90;97.20;;;;;;1734078;28;20391;-69
2023/06/19 08:25:51;;;;;;;5.70;4.60;;;25.90;97.20;;;;;;1730940;28;20443;-69
2023/06/19 08:26:42;;;;;;;4.00;3.70;;;25.90;97.20;;;;;;1727204;28;20232;-69
2023/06/19 08:27:34;;;;;;;3.77;3.40;;;25.90;97.20;;;;;;1727154;28;20493;-69
2023/06/19 08:28:25;;;;;;;4.80;4.40;;;25.90;97.20;;;;;;1726973;28;20207;-69
2023/06/19 08:29:16;;;;;;;4.63;4.03;;;25.90;97.20;;;;;;1727232;28;20449;-69
2023/06/19 08:30:08;;;;;;;4.60;3.83;;;25.90;97.20;;;;;;1727360;28;20201;-69
2023/06/19 08:30:59;;;;;;;3.93;3.63;;;25.90;97.20;;;;;;1727043;28;20503;-69
2023/06/19 08:31:50;;;;;;;5.50;4.20;;;25.90;97.20;;;;;;1727178;28;20448;-69
2023/06/19 08:32:42;;;;;;;4.30;4.00;;;25.90;97.20;;;;;;1727169;28;20435;-69
2023/06/19 08:33:35;;;;;;;3.93;3.60;;;25.90;97.20;;;;;;1727226;28;20200;-69
2023/06/19 08:34:26;;;;;;;4.43;4.03;;;25.90;97.20;;;;;;1727100;28;20550;-69
2023/06/19 08:35:18;;;;;;;6.00;4.10;;;26.00;97.20;;;;;;1727204;28;20451;-69
2023/06/19 08:36:09;;;;;;;4.73;3.60;;;26.10;97.20;;;;;;1727076;28;20467;-69
2023/06/19 08:37:00;;;;;;;3.80;3.50;;;26.10;97.20;;;;;;1727191;28;20445;-69
2023/06/19 08:37:53;;;;;;;4.10;3.80;;;26.20;97.20;;;;;;1727031;28;20215;-69
2023/06/19 08:38:47;;;;;;;3.90;3.60;;;26.30;97.20;;;;;;1726519;28;20451;-69
2023/06/19 08:39:39;;;;;;;3.67;3.37;;;26.40;97.20;;;;;;1727079;28;20456;-69
2023/06/19 08:40:30;;;;;;;3.73;3.43;;;26.50;97.20;;;;;;1727927;28;20450;-69
2023/06/19 08:41:21;;;;;;;3.83;3.53;;;26.60;97.20;;;;;;1728398;28;20501;-69
2023/06/19 08:42:12;;;;;;;5.37;4.50;;;26.70;97.20;;;;;;1728405;28;20227;-69
2023/06/19 08:43:04;;;;;;;5.00;3.40;;;26.80;97.20;;;;;;1728330;28;20530;-69
2023/06/19 08:43:55;;;;;;;4.57;3.20;;;26.80;97.20;;;;;;1728437;28;20200;-68
2023/06/19 08:44:46;;;;;;;4.10;3.80;;;26.90;97.20;;;;;;1727913;28;20447;-69
2023/06/19 08:45:37;;;;;;;3.83;3.50;;;27.00;97.20;;;;;;1728197;28;20205;-69
2023/06/19 08:46:29;;;;;;;3.87;3.57;;;27.10;97.20;;;;;;1728315;28;20483;-69
2023/06/19 08:47:20;;;;;;;4.17;3.77;;;27.20;97.20;;;;;;1728301;28;20485;-69
2023/06/19 08:48:15;;;;;;;4.53;4.07;;;27.20;97.20;;;;;;1728136;28;20454;-69
2023/06/19 08:49:06;;;;;;;3.50;3.30;;;27.30;97.20;;;;;;1728251;28;20228;-69
2023/06/19 08:49:59;;;;;;;3.37;3.10;;;27.40;97.20;;;;;;1728277;28;20497;-69
2023/06/19 08:50:49;;;;;;;5.33;3.50;;;27.40;97.20;;;;;;1728115;28;21015;-69
2023/06/19 08:51:41;;;;;;;4.23;3.93;;;27.40;97.20;;;;;;1728236;28;20813;-72
2023/06/19 08:52:32;;;;;;;4.80;4.17;;;27.50;97.20;;;;;;1728399;28;20207;-70
2023/06/19 08:53:25;;;;;;;4.20;3.90;;;27.50;97.20;;;;;;1728107;28;20443;-70
2023/06/19 08:54:17;;;;;;;3.73;3.43;;;27.60;97.20;;;;;;1728316;28;20200;-70
2023/06/19 08:55:10;;;;;;;3.97;3.67;;;27.60;97.20;;;;;;1728385;28;20443;-72
2023/06/19 08:56:00;;;;;;;3.70;3.40;;;27.70;97.20;;;;;;1728342;28;20436;-72
2023/06/19 08:56:53;;;;;;;3.40;3.20;;;27.80;97.20;;;;;;1728230;28;20515;-71
2023/06/19 08:57:44;;;;;;;5.27;3.37;;;27.90;97.20;;;;;;1728379;28;20215;-69
2023/06/19 08:58:36;;;;;;;3.97;3.60;;;27.90;97.20;;;;;;1727796;28;20518;-69
2023/06/19 08:59:28;;;;;;;6.53;3.53;;;28.00;97.20;;;;;;1728007;28;20262;-69
2023/06/19 09:00:27;;;;;;;5.93;3.40;;;28.10;97.20;;;;;;1728049;28;20447;-69
2023/06/19 09:01:19;;;;;;;3.90;2.97;;;28.20;97.20;;;;;;1721505;28;20455;-69
2023/06/19 09:02:10;;;;;;;3.30;3.00;;;28.20;97.20;;;;;;1721589;28;20942;-69
2023/06/19 09:03:03;;;;;;;3.70;3.40;;;28.20;97.20;;;;;;1727142;28;20483;-69
2023/06/19 09:03:54;;;;;;;4.07;3.23;;;28.20;97.20;;;;;;1728281;28;20439;-69
2023/06/19 09:04:45;;;;;;;4.00;3.20;;;28.10;97.20;;;;;;1727965;28;20999;-69
2023/06/19 09:05:43;;;;;;;3.63;3.27;;;28.10;97.20;;;;;;1728152;28;20831;-69
2023/06/19 09:06:38;;;;;;;3.40;3.20;;;28.10;97.20;;;;;;1728208;28;20757;-69
2023/06/19 09:07:29;;;;;;;3.50;3.10;;;28.00;97.20;;;;;;1728290;28;20470;-70
2023/06/19 09:08:21;;;;;;;3.13;2.93;;;28.10;97.20;;;;;;1728061;28;20443;-69
2023/06/19 09:09:15;;;;;;;3.33;3.13;;;28.10;97.20;;;;;;1728191;28;20451;-69
2023/06/19 09:10:13;;;;;;;4.30;3.30;;;28.10;97.20;;;;;;1728408;28;20439;-70
2023/06/19 09:11:06;;;;;;;3.67;3.37;;;28.20;97.20;;;;;;1728480;28;20439;-70
2023/06/19 09:11:58;;;;;;;3.17;2.87;;;28.30;97.20;;;;;;1728055;28;20452;-69
2023/06/19 09:13:00;;;;;;;6.50;3.47;;;28.40;97.20;;;;;;1728250;28;20805;-70
2023/06/19 09:13:56;;;;;;;3.50;3.10;;;28.50;97.20;;;;;;1728080;28;20482;-70
2023/06/19 09:14:48;;;;;;;5.10;3.47;;;28.60;97.20;;;;;;1728351;28;20851;-70
2023/06/19 09:15:38;;;;;;;4.50;3.60;;;28.60;97.20;;;;;;1727978;28;20471;-70
2023/06/19 09:16:38;;;;;;;6.33;4.00;;;28.60;97.20;;;;;;1727942;28;20440;-70
2023/06/19 09:17:29;;;;;;;4.70;3.33;;;28.60;97.20;;;;;;1728293;28;20698;-70
2023/06/19 09:18:21;;;;;;;3.77;3.30;;;28.60;97.20;;;;;;1727988;28;20951;-69
2023/06/19 09:19:20;;;;;;;3.20;2.90;;;28.60;97.20;;;;;;1727719;28;20223;-70
2023/06/19 09:20:12;;;;;;;6.37;3.37;;;28.50;97.20;;;;;;1728276;28;20514;-70
2023/06/19 09:21:03;;;;;;;3.17;2.70;;;28.50;97.20;;;;;;1727860;28;20593;-70
2023/06/19 09:21:59;;;;;;;3.40;3.10;;;28.40;97.20;;;;;;1728170;28;20447;-70
2023/06/19 09:22:55;;;;;;;3.73;3.43;;;28.40;97.20;;;;;;1728239;28;20201;-70
2023/06/19 09:23:46;;;;;;;3.30;3.00;;;28.30;97.20;;;;;;1728045;28;20454;-69
2023/06/19 09:24:41;;;;;;;4.13;3.37;;;28.30;97.20;;;;;;1728110;28;20443;-70
2023/06/19 09:25:42;;;;;;;4.77;3.13;;;28.30;97.20;;;;;;1728114;28;20447;-70
2023/06/19 09:26:35;;;;;;;3.43;3.03;;;28.20;97.20;;;;;;1727940;28;21007;-70
2023/06/19 09:27:31;;;;;;;4.87;2.80;;;28.20;97.20;;;;;;1728128;28;20478;-70
2023/06/19 09:28:24;;;;;;;3.20;2.87;;;28.10;97.20;;;;;;1727866;28;20447;-70
2023/06/19 09:29:15;;;;;;;4.17;3.20;;;28.10;97.20;;;;;;1727473;28;20501;-70
2023/06/19 09:30:08;;;;;;;3.07;2.87;;;28.00;97.20;;;;;;1728183;28;20530;-70
2023/06/19 09:31:00;;;;;;;3.23;2.93;;;28.00;97.20;;;;;;1727765;28;20537;-69
2023/06/19 09:31:51;;;;;;;3.97;3.67;;;27.90;97.20;;;;;;1728184;28;20526;-70